Time;durP1;ratioP1;P1;durP2;ratioP2;P2;SDS_P1;SDS_P2;PMS_P1;PMS_P2;Temp;Humidity;BMP_temperature;BMP_pressure;BME280_temperature;BME280_humidity;BME280_pressure;Samples;Min_cycle;Max_cycle;Signal;HPM_P1;HPM_P2
2022/10/18 00:00:09;;;;;;;8.13;2.97;;;;;;;6.85;82.51;97138.73;1709477;83;21091;-81
2022/10/18 00:02:39;;;;;;;5.90;2.85;;;;;;;6.82;82.41;97132.99;1714461;83;21046;-80
2022/10/18 00:05:07;;;;;;;5.77;2.60;;;;;;;6.76;82.94;97132.00;1708771;83;21088;-80
2022/10/18 00:07:34;;;;;;;4.10;2.70;;;;;;;6.71;82.36;97133.21;1713044;83;21053;-80
2022/10/18 00:10:01;;;;;;;8.63;3.03;;;;;;;6.76;82.82;97130.26;1719363;83;21092;-81
2022/10/18 00:12:27;;;;;;;10.87;2.60;;;;;;;6.89;83.03;97134.02;1716338;83;21590;-81
2022/10/18 00:14:54;;;;;;;5.67;3.27;;;;;;;6.97;82.57;97128.92;1712119;83;21070;-81
2022/10/18 00:17:21;;;;;;;6.10;2.60;;;;;;;6.90;82.24;97130.52;1711135;83;21024;-81
2022/10/18 00:19:49;;;;;;;9.23;2.73;;;;;;;6.89;82.71;97137.95;1711273;82;21080;-81
2022/10/18 00:22:15;;;;;;;8.73;2.80;;;;;;;6.85;82.21;97125.61;1709238;83;21079;-81
2022/10/18 00:24:42;;;;;;;6.17;3.00;;;;;;;6.80;82.51;97127.26;1708855;83;21490;-80
2022/10/18 00:27:09;;;;;;;10.33;2.90;;;;;;;6.80;82.47;97121.58;1706418;83;21206;-81
2022/10/18 00:29:36;;;;;;;4.73;2.53;;;;;;;6.92;82.94;97114.39;1708883;83;21025;-81
2022/10/18 00:32:02;;;;;;;6.13;2.80;;;;;;;6.91;81.90;97110.89;1712945;83;21033;-80
2022/10/18 00:34:29;;;;;;;6.83;2.80;;;;;;;6.85;81.63;97115.12;1709676;83;21024;-81
2022/10/18 00:36:56;;;;;;;12.17;2.77;;;;;;;6.76;82.27;97117.14;1713036;83;21061;-80
2022/10/18 00:39:22;;;;;;;14.20;3.30;;;;;;;6.75;82.51;97110.11;1715942;83;21036;-79
2022/10/18 00:41:50;;;;;;;5.87;3.00;;;;;;;6.78;82.95;97108.88;1716048;83;21483;-80
2022/10/18 00:44:28;;;;;;;9.20;3.97;;;;;;;6.79;82.09;97106.70;1709889;83;21000;-80
2022/10/18 00:47:02;;;;;;;10.17;3.37;;;;;;;6.72;81.94;97103.06;1712300;83;21095;-81
2022/10/18 00:49:37;;;;;;;12.10;3.80;;;;;;;6.70;83.16;97102.57;1677720;84;21038;-80
2022/10/18 00:52:17;;;;;;;5.97;2.47;;;;;;;6.70;82.80;97098.63;1708770;83;21044;-80
2022/10/18 00:54:46;;;;;;;14.93;3.27;;;;;;;6.66;82.71;97091.58;1707252;84;21478;-81
2022/10/18 00:57:13;;;;;;;3.97;2.93;;;;;;;6.58;82.29;97097.97;1720044;83;21025;-80
2022/10/18 00:59:42;;;;;;;14.07;3.53;;;;;;;6.51;82.25;97097.37;1711089;83;21026;-81
2022/10/18 01:02:10;;;;;;;4.03;2.73;;;;;;;6.50;83.53;97091.26;1710749;83;21115;-81
2022/10/18 01:04:37;;;;;;;4.00;2.73;;;;;;;6.48;83.42;97082.91;1711828;83;21080;-79
2022/10/18 01:07:27;;;;;;;7.13;3.43;;;;;;;6.42;83.76;97089.30;1702215;84;21071;-80
2022/10/18 01:10:23;;;;;;;4.80;3.47;;;;;;;6.37;83.47;97090.52;1710100;83;21017;-79
2022/10/18 01:13:16;;;;;;;5.83;3.00;;;;;;;6.36;83.63;97082.63;1712491;83;21035;-80
2022/10/18 01:16:09;;;;;;;9.20;3.22;;;;;;;6.29;84.30;97082.48;1712569;83;21033;-81
2022/10/18 01:18:53;;;;;;;4.60;3.08;;;;;;;6.26;83.91;97081.11;1710341;83;21066;-81
2022/10/18 01:21:51;;;;;;;5.53;2.43;;;;;;;6.27;84.11;97080.68;1718253;83;20997;-81
2022/10/18 01:24:32;;;;;;;6.43;2.83;;;;;;;6.19;84.90;97074.39;1720023;83;21104;-81
2022/10/18 01:27:33;;;;;;;8.30;3.40;;;;;;;6.13;84.57;97075.58;1703502;83;21044;-81
2022/10/18 01:30:43;;;;;;;7.40;3.60;;;;;;;6.17;84.19;97073.03;1716284;83;21046;-80
2022/10/18 01:33:38;;;;;;;4.30;2.93;;;;;;;6.24;84.24;97067.08;1707521;84;21218;-82
2022/10/18 01:36:22;;;;;;;11.97;3.00;;;;;;;6.36;84.07;97073.03;1704055;84;21007;-81
2022/10/18 01:38:53;;;;;;;4.50;2.70;;;;;;;6.38;84.09;97065.20;1704361;84;21065;-81
2022/10/18 01:41:24;;;;;;;4.37;3.10;;;;;;;6.29;83.82;97061.52;1716074;83;21602;-81
2022/10/18 01:43:56;;;;;;;2.67;2.23;;;;;;;6.29;83.97;97060.63;1711404;83;21029;-81
2022/10/18 01:46:25;;;;;;;8.23;2.53;;;;;;;6.27;83.85;97058.40;1711648;83;21038;-81
2022/10/18 01:48:53;;;;;;;3.43;2.53;;;;;;;6.26;84.11;97061.45;1715126;83;21044;-81
2022/10/18 01:51:28;;;;;;;6.80;3.10;;;;;;;6.27;83.68;97053.16;1705539;84;21558;-81
2022/10/18 01:53:55;;;;;;;4.80;2.53;;;;;;;6.37;84.34;97047.25;1716142;83;21049;-82
2022/10/18 01:56:48;;;;;;;5.30;3.00;;;;;;;6.38;83.72;97051.66;1716065;83;21088;-81
2022/10/18 01:59:41;;;;;;;10.48;3.30;;;;;;;6.38;84.15;97053.41;1711625;83;21057;-81
2022/10/18 02:02:46;;;;;;;4.75;2.58;;;;;;;6.40;83.61;97049.97;1693648;84;21067;-81
2022/10/18 02:05:35;;;;;;;6.90;2.83;;;;;;;6.45;84.29;97048.73;1697980;84;21593;-82
2022/10/18 02:08:28;;;;;;;3.60;2.40;;;;;;;6.61;84.47;97042.95;1715122;84;21152;-82
2022/10/18 02:11:11;;;;;;;3.37;2.53;;;;;;;6.70;83.46;97042.23;1717259;83;21092;-81
2022/10/18 02:13:46;;;;;;;6.80;2.95;;;;;;;6.56;82.43;97038.05;1684487;84;21068;-81
2022/10/18 02:16:38;;;;;;;4.70;2.70;;;;;;;6.40;82.90;97035.95;1710289;83;21135;-81
2022/10/18 02:19:25;;;;;;;7.47;3.13;;;;;;;6.32;82.86;97041.03;1706516;83;21519;-81
2022/10/18 02:21:53;;;;;;;6.77;3.10;;;;;;;6.29;83.36;97047.53;1710304;83;21141;-81
2022/10/18 02:24:23;;;;;;;9.60;3.67;;;;;;;6.21;82.59;97046.05;1705790;83;21089;-80
2022/10/18 02:26:49;;;;;;;7.63;3.10;;;;;;;6.22;83.75;97040.38;1711225;83;21040;-79
2022/10/18 02:29:16;;;;;;;10.27;3.50;;;;;;;6.24;83.90;97039.56;1708776;83;21053;-80
2022/10/18 02:31:50;;;;;;;4.57;3.00;;;;;;;6.24;83.72;97038.25;1712871;83;21080;-81
2022/10/18 02:34:22;;;;;;;;;;;;;;;6.28;84.25;97036.59;1707913;83;21125;-81
2022/10/18 02:36:59;;;;;;;4.53;2.90;;;;;;;6.23;83.91;97036.50;1705401;83;20570;-80
2022/10/18 02:39:31;;;;;;;8.63;3.10;;;;;;;6.14;83.75;97036.72;1707273;83;21036;-81
2022/10/18 02:41:58;;;;;;;4.50;3.07;;;;;;;6.08;83.20;97037.91;1696528;83;21164;-81
2022/10/18 02:44:26;;;;;;;7.87;2.80;;;;;;;6.05;84.20;97040.03;1673789;85;21081;-81
2022/10/18 02:46:53;;;;;;;9.30;3.70;;;;;;;6.08;84.33;97032.67;1705071;83;21037;-80
2022/10/18 02:49:20;;;;;;;9.17;3.40;;;;;;;6.06;84.17;97037.86;1682787;83;21041;-81
2022/10/18 02:51:46;;;;;;;10.03;3.20;;;;;;;6.05;84.67;97033.05;1715359;83;21114;-78
2022/10/18 02:54:13;;;;;;;4.67;3.37;;;;;;;6.00;84.35;97033.81;1714567;83;21045;-80
2022/10/18 02:56:40;;;;;;;7.87;3.27;;;;;;;5.93;84.36;97034.05;1690717;83;21048;-80
2022/10/18 02:59:07;;;;;;;8.20;3.17;;;;;;;5.88;85.06;97036.12;1714215;83;21037;-81
2022/10/18 03:01:39;;;;;;;4.03;2.77;;;;;;;5.82;85.00;97036.44;1713693;83;21045;-80
2022/10/18 03:04:04;;;;;;;5.10;2.90;;;;;;;5.83;85.48;97033.39;1714964;83;21084;-80
2022/10/18 03:06:32;;;;;;;5.20;3.60;;;;;;;5.82;84.79;97037.75;1705248;83;21167;-80
2022/10/18 03:09:01;;;;;;;6.60;2.93;;;;;;;5.83;84.54;97032.08;1710377;82;21238;-81
2022/10/18 03:11:28;;;;;;;8.10;3.13;;;;;;;5.83;84.96;97034.27;1710235;83;21029;-80
2022/10/18 03:13:54;;;;;;;8.43;3.17;;;;;;;5.83;84.33;97037.31;1716545;83;21084;-81
2022/10/18 03:16:21;;;;;;;9.27;3.30;;;;;;;5.78;84.69;97031.97;1711127;83;21030;-81
2022/10/18 03:18:48;;;;;;;9.53;3.57;;;;;;;5.73;84.39;97030.09;1707676;82;21124;-81
2022/10/18 03:21:15;;;;;;;7.33;3.00;;;;;;;5.68;83.89;97036.53;1710517;82;21009;-80
2022/10/18 03:23:41;;;;;;;4.43;2.70;;;;;;;5.62;84.60;97038.59;1713125;83;21033;-81
2022/10/18 03:26:08;;;;;;;5.20;2.80;;;;;;;5.69;84.85;97034.79;1705506;83;21511;-81
2022/10/18 03:28:35;;;;;;;3.83;2.50;;;;;;;5.82;85.09;97028.98;1711793;83;20981;-81
2022/10/18 03:31:04;;;;;;;9.17;2.80;;;;;;;5.91;84.94;97030.51;1712819;83;21049;-81
2022/10/18 03:33:32;;;;;;;11.97;7.00;;;;;;;5.92;84.65;97028.77;1715404;83;21701;-81
2022/10/18 03:35:59;;;;;;;15.73;7.67;;;;;;;5.92;85.09;97028.77;1705524;83;21120;-81
2022/10/18 03:38:26;;;;;;;16.93;9.40;;;;;;;5.89;84.77;97027.39;1704989;83;21032;-81
2022/10/18 03:40:53;;;;;;;16.83;8.17;;;;;;;5.93;84.41;97028.81;1705454;83;21124;-81
2022/10/18 03:43:19;;;;;;;11.70;5.77;;;;;;;5.86;83.68;97029.52;1705621;83;21001;-81
2022/10/18 03:45:46;;;;;;;14.90;6.77;;;;;;;5.80;83.85;97029.39;1717132;82;21009;-80
2022/10/18 03:48:13;;;;;;;8.67;4.40;;;;;;;5.74;83.83;97024.88;1716592;83;21017;-80
2022/10/18 03:50:40;;;;;;;9.10;4.70;;;;;;;5.80;84.54;97022.41;1705066;83;21660;-81
2022/10/18 03:53:06;;;;;;;11.70;6.60;;;;;;;5.93;84.60;97022.27;1707948;82;21041;-81
2022/10/18 03:55:33;;;;;;;7.93;4.57;;;;;;;5.96;83.91;97022.79;1712737;83;21017;-81
2022/10/18 03:58:00;;;;;;;12.33;3.83;;;;;;;5.94;83.79;97028.41;1704193;83;21037;-81
2022/10/18 04:00:26;;;;;;;6.67;2.47;;;;;;;6.01;84.39;97022.03;1715672;83;21021;-80
2022/10/18 04:02:53;;;;;;;6.77;2.87;;;;;;;5.99;83.92;97025.03;1717044;83;21100;-80
2022/10/18 04:05:20;;;;;;;6.13;3.10;;;;;;;5.94;84.15;97025.80;1709148;83;21088;-80
2022/10/18 04:07:46;;;;;;;5.23;2.57;;;;;;;5.83;83.61;97022.91;1710364;83;21102;-80
2022/10/18 04:10:13;;;;;;;7.83;2.97;;;;;;;5.80;84.00;97015.86;1704800;83;21080;-79
2022/10/18 04:12:40;;;;;;;5.90;3.53;;;;;;;5.94;84.58;97016.62;1716271;83;21097;-81
2022/10/18 04:15:08;;;;;;;9.27;4.17;;;;;;;5.97;84.46;97016.69;1715871;83;21123;-80
2022/10/18 04:17:35;;;;;;;12.37;7.33;;;;;;;5.93;84.19;97010.91;1715164;82;21654;-79
2022/10/18 04:20:03;;;;;;;8.90;3.60;;;;;;;5.89;83.14;97007.31;1704798;83;21515;-79
2022/10/18 04:22:30;;;;;;;7.67;4.03;;;;;;;5.87;83.73;97007.70;1715541;82;21241;-79
2022/10/18 04:24:56;;;;;;;9.90;4.20;;;;;;;5.88;84.10;97003.38;1711403;83;21025;-79
2022/10/18 04:27:23;;;;;;;8.63;3.63;;;;;;;5.93;84.37;97008.28;1714956;83;21029;-79
2022/10/18 04:29:50;;;;;;;3.73;2.80;;;;;;;5.98;84.41;97010.62;1717105;83;21093;-79
2022/10/18 04:32:17;;;;;;;5.13;3.30;;;;;;;6.07;84.44;97009.48;1716059;83;21188;-79
2022/10/18 04:34:43;;;;;;;13.87;5.00;;;;;;;6.00;84.32;97008.92;1709983;83;21053;-79
2022/10/18 04:37:10;;;;;;;7.10;4.27;;;;;;;5.95;83.84;97006.63;1709871;82;21061;-79
2022/10/18 04:39:37;;;;;;;10.73;6.03;;;;;;;5.77;82.20;97005.33;1716312;82;21111;-78
2022/10/18 04:42:03;;;;;;;6.27;4.43;;;;;;;5.60;82.56;97000.13;1716969;83;21515;-79
2022/10/18 04:44:30;;;;;;;7.50;3.90;;;;;;;5.57;83.17;96999.63;1705401;83;21048;-80
2022/10/18 04:46:57;;;;;;;9.80;5.20;;;;;;;5.60;84.54;97000.13;1711542;83;21494;-79
2022/10/18 04:49:23;;;;;;;9.70;5.20;;;;;;;5.59;84.61;96999.64;1705370;83;21037;-79
2022/10/18 04:51:50;;;;;;;6.83;4.83;;;;;;;5.50;83.96;96999.45;1716847;83;21105;-79
2022/10/18 04:54:16;;;;;;;6.00;3.93;;;;;;;5.50;84.29;96995.52;1710707;83;21589;-78
2022/10/18 04:56:43;;;;;;;4.87;2.97;;;;;;;5.50;84.99;96992.47;1704969;83;21084;-78
2022/10/18 04:59:09;;;;;;;8.47;2.93;;;;;;;5.48;84.73;96995.47;1718420;82;21022;-75
2022/10/18 05:01:36;;;;;;;6.20;3.53;;;;;;;5.47;85.13;96996.34;1706306;83;22233;-81
2022/10/18 05:04:03;;;;;;;8.53;4.03;;;;;;;5.51;85.16;96988.99;1704121;83;21040;-75
2022/10/18 05:06:29;;;;;;;4.53;2.90;;;;;;;5.57;85.42;96999.63;1710221;83;21096;-78
2022/10/18 05:08:56;;;;;;;7.50;3.10;;;;;;;5.61;85.53;96993.59;1707960;83;21144;-75
2022/10/18 05:11:23;;;;;;;7.23;4.87;;;;;;;5.62;85.83;96991.45;1704326;83;21040;-75
2022/10/18 05:13:49;;;;;;;10.00;5.63;;;;;;;5.68;85.32;96996.38;1708555;83;21083;-70
2022/10/18 05:16:16;;;;;;;21.83;11.93;;;;;;;5.64;84.29;96993.69;1671680;85;21120;-69
2022/10/18 05:18:43;;;;;;;29.10;14.73;;;;;;;5.55;84.44;96989.97;1704546;83;21068;-70
2022/10/18 05:21:11;;;;;;;40.53;24.53;;;;;;;5.58;85.02;96997.45;1700386;84;21058;-75
2022/10/18 05:23:38;;;;;;;23.10;13.00;;;;;;;5.61;84.62;96992.72;1715410;83;21093;-76
2022/10/18 05:26:06;;;;;;;15.90;10.17;;;;;;;5.62;84.80;96995.81;1709929;83;21080;-75
2022/10/18 05:28:34;;;;;;;19.20;10.93;;;;;;;5.68;85.49;96990.70;1715570;83;21107;-72
2022/10/18 05:31:04;;;;;;;35.33;21.37;;;;;;;5.82;85.31;96996.23;1721871;81;22621;-71
2022/10/18 05:33:32;;;;;;;35.43;19.03;;;;;;;5.83;84.31;96994.97;1692743;83;21073;-72
2022/10/18 05:35:59;;;;;;;11.20;4.70;;;;;;;5.83;84.53;96995.41;1737415;82;21575;-72
2022/10/18 05:38:26;;;;;;;21.83;12.70;;;;;;;5.93;84.93;96996.06;1736201;82;21057;-72
2022/10/18 05:40:53;;;;;;;20.83;13.50;;;;;;;6.07;85.69;96995.07;1736504;82;21068;-69
2022/10/18 05:43:19;;;;;;;30.97;14.90;;;;;;;6.19;85.59;96988.78;1733056;82;21097;-75
2022/10/18 05:45:50;;;;;;;21.30;14.30;;;;;;;6.33;85.03;96993.02;1735833;82;21060;-72
2022/10/18 05:48:17;;;;;;;17.77;11.47;;;;;;;6.39;85.11;96989.63;1720896;82;21514;-71
2022/10/18 05:50:45;;;;;;;18.27;10.33;;;;;;;6.54;85.48;96990.36;1735180;82;21128;-71
2022/10/18 05:53:12;;;;;;;19.93;10.37;;;;;;;6.68;85.23;96989.77;1738060;82;21077;-72
2022/10/18 05:55:39;;;;;;;20.87;11.20;;;;;;;6.85;84.86;96990.50;1733589;82;21034;-70
2022/10/18 05:58:06;;;;;;;22.57;13.00;;;;;;;7.05;85.13;96996.11;1734113;82;21128;-72
2022/10/18 06:00:33;;;;;;;10.47;6.30;;;;;;;7.18;84.57;96998.52;1716794;82;21511;-73
2022/10/18 06:02:59;;;;;;;7.67;4.17;;;;;;;7.22;84.21;96992.47;1734023;82;21029;-65
2022/10/18 06:05:26;;;;;;;7.10;2.97;;;;;;;7.20;84.10;96992.43;1743183;82;21077;-70
2022/10/18 06:07:52;;;;;;;10.97;8.40;;;;;;;7.22;84.23;96988.09;1741648;82;21053;-67
2022/10/18 06:10:19;;;;;;;8.17;5.47;;;;;;;7.25;84.98;96981.58;1734297;82;21876;-68
2022/10/18 06:12:46;;;;;;;141.07;63.37;;;;;;;7.31;84.82;96980.38;1731505;82;21073;-68
2022/10/18 06:15:13;;;;;;;26.70;17.13;;;;;;;7.39;85.08;96984.44;1728510;82;21057;-67
2022/10/18 06:17:39;;;;;;;21.30;13.67;;;;;;;7.50;85.97;96984.60;1725129;82;21061;-68
2022/10/18 06:20:07;;;;;;;18.90;12.80;;;;;;;7.57;85.58;96988.66;1730600;83;21430;-67
2022/10/18 06:22:34;;;;;;;13.40;10.77;;;;;;;7.71;85.82;96983.64;1721116;82;21135;-68
2022/10/18 06:25:01;;;;;;;10.30;7.67;;;;;;;7.82;85.56;96978.97;1717387;82;21716;-68
2022/10/18 06:27:30;;;;;;;15.70;11.47;;;;;;;7.94;85.73;96976.52;1720369;82;21093;-68
2022/10/18 06:29:57;;;;;;;10.47;7.73;;;;;;;7.99;84.93;96981.41;1723615;82;21017;-67
2022/10/18 06:32:23;;;;;;;10.30;7.23;;;;;;;8.12;85.28;96974.13;1722514;82;21141;-67
2022/10/18 06:34:50;;;;;;;5.77;4.47;;;;;;;8.27;85.25;96969.49;1735062;82;21077;-67
2022/10/18 06:37:17;;;;;;;7.20;4.93;;;;;;;8.41;85.00;96972.31;1719147;82;21036;-67
2022/10/18 06:39:43;;;;;;;7.60;4.33;;;;;;;8.53;85.10;96965.00;1736568;82;21057;-67
2022/10/18 06:42:10;;;;;;;7.50;4.47;;;;;;;8.62;84.88;96959.42;1738512;82;21622;-68
2022/10/18 06:44:38;;;;;;;7.60;5.13;;;;;;;8.74;84.67;96971.80;1739043;82;21073;-67
2022/10/18 06:47:06;;;;;;;11.60;5.60;;;;;;;8.87;84.58;96965.82;1729593;82;21615;-67
2022/10/18 06:49:33;;;;;;;9.53;5.73;;;;;;;8.95;84.44;96963.27;1735827;82;21054;-67
2022/10/18 06:51:59;;;;;;;6.37;4.77;;;;;;;9.16;84.86;96964.33;1742583;82;21605;-67
2022/10/18 06:54:26;;;;;;;8.93;7.20;;;;;;;9.40;85.07;96966.27;1740605;82;21118;-67
2022/10/18 06:56:57;;;;;;;7.97;6.00;;;;;;;9.64;84.78;96963.83;1726407;82;21404;-67
2022/10/18 06:59:24;;;;;;;10.97;5.37;;;;;;;9.85;84.32;96956.92;1728166;82;21614;-67
2022/10/18 07:01:51;;;;;;;7.65;5.42;;;;;;;10.01;83.83;96953.96;1721310;82;21516;-67
2022/10/18 07:04:17;;;;;;;11.00;5.20;;;;;;;10.21;82.96;96954.94;1713023;82;21104;-69
2022/10/18 07:06:44;;;;;;;7.90;5.95;;;;;;;10.47;83.71;96954.20;1731238;83;21128;-68
2022/10/18 07:09:11;;;;;;;11.03;6.08;;;;;;;10.68;83.07;96952.92;1719231;82;20981;-67
2022/10/18 07:11:37;;;;;;;7.10;5.00;;;;;;;10.92;82.92;96953.44;1728433;82;21030;-70
2022/10/18 07:14:04;;;;;;;9.33;4.55;;;;;;;11.11;82.46;96955.65;1738174;82;21138;-69
2022/10/18 07:16:33;;;;;;;12.63;3.80;;;;;;;11.32;81.89;96954.80;1712828;82;21203;-68
2022/10/18 07:19:00;;;;;;;9.10;4.37;;;;;;;11.54;81.92;96951.73;1735384;82;21084;-68
2022/10/18 07:21:26;;;;;;;7.45;4.95;;;;;;;11.72;80.83;96944.22;1725256;82;21524;-67
2022/10/18 07:23:55;;;;;;;6.08;5.00;;;;;;;11.79;79.07;96934.07;1735887;82;21088;-67
2022/10/18 07:26:28;;;;;;;5.50;4.40;;;;;;;11.86;79.45;96937.15;1715084;82;21048;-67
2022/10/18 07:29:07;;;;;;;7.03;5.37;;;;;;;11.97;79.56;96934.50;1737854;82;21144;-67
2022/10/18 07:31:34;;;;;;;9.55;5.15;;;;;;;12.14;79.46;96935.75;1721090;82;21060;-66
2022/10/18 07:34:04;;;;;;;106.80;55.30;;;;;;;12.31;78.50;96935.70;1736794;82;21556;-65
2022/10/18 07:36:30;;;;;;;15.13;10.08;;;;;;;12.41;77.30;96927.28;1729425;82;21061;-67
2022/10/18 07:38:58;;;;;;;5.97;3.40;;;;;;;12.50;77.71;96922.83;1700540;82;21033;-66
2022/10/18 07:41:25;;;;;;;5.97;3.40;;;;;;;12.66;77.54;96930.24;1721821;81;21080;-67
2022/10/18 07:43:53;;;;;;;5.60;3.83;;;;;;;12.76;76.57;96923.13;1716383;81;21100;-69
2022/10/18 07:46:21;;;;;;;5.47;3.70;;;;;;;12.87;76.54;96916.44;1729240;82;21033;-70
2022/10/18 07:48:48;;;;;;;6.17;4.05;;;;;;;12.99;75.81;96913.25;1732146;82;21474;-66
2022/10/18 07:51:17;;;;;;;6.10;4.33;;;;;;;13.16;76.23;96913.59;1727318;81;21038;-67
2022/10/18 07:53:44;;;;;;;5.22;3.80;;;;;;;13.29;75.39;96908.66;1737628;82;21077;-66
2022/10/18 07:56:15;;;;;;;4.85;3.35;;;;;;;13.43;75.34;96908.55;1734099;82;20998;-67
2022/10/18 07:58:44;;;;;;;6.28;3.92;;;;;;;13.58;75.06;96911.48;1706694;84;21220;-70
2022/10/18 08:01:12;;;;;;;70.95;38.58;;;;;;;13.72;74.92;96904.28;1729025;82;21057;-67
2022/10/18 08:03:40;;;;;;;6.55;4.55;;;;;;;13.87;74.49;96907.69;1730281;81;21082;-66
2022/10/18 08:06:10;;;;;;;6.75;3.50;;;;;;;13.99;74.06;96900.47;1730346;82;21034;-67
2022/10/18 08:08:39;;;;;;;10.35;4.08;;;;;;;14.08;72.85;96895.48;1731748;81;21578;-68
2022/10/18 08:11:13;;;;;;;6.62;4.08;;;;;;;14.22;73.51;96892.23;1729045;82;21037;-65
2022/10/18 08:13:41;;;;;;;10.05;3.98;;;;;;;14.42;73.60;96891.98;1720066;81;21484;-67
2022/10/18 08:16:12;;;;;;;9.18;4.75;;;;;;;14.56;73.51;96886.97;1721575;82;21092;-65
2022/10/18 08:18:39;;;;;;;8.78;5.47;;;;;;;14.68;73.27;96890.78;1719198;82;21067;-65
2022/10/18 08:21:10;;;;;;;14.03;5.50;;;;;;;14.81;73.19;96885.72;1703718;82;21172;-65
2022/10/18 08:23:38;;;;;;;15.65;7.05;;;;;;;14.90;72.91;96876.29;1726759;81;21366;-65
2022/10/18 08:26:09;;;;;;;17.42;7.53;;;;;;;14.99;72.96;96886.34;1730396;82;21055;-65
2022/10/18 08:28:36;;;;;;;16.12;7.80;;;;;;;15.30;72.73;96873.46;1727138;82;21062;-64
2022/10/18 08:31:09;;;;;;;12.75;6.70;;;;;;;15.30;72.73;96873.46;1697525;82;21010;-69
2022/10/18 08:33:38;;;;;;;11.90;5.87;;;;;;;15.48;72.43;96869.61;1726805;82;21051;-67
2022/10/18 08:36:07;;;;;;;10.80;5.53;;;;;;;15.63;71.47;96868.00;1723059;81;20994;-67
2022/10/18 08:38:36;;;;;;;11.75;5.10;;;;;;;15.82;70.92;96870.34;1725145;82;21574;-67
2022/10/18 08:41:40;;;;;;;10.72;5.70;;;;;;;15.93;67.59;96860.39;1722794;82;21054;-65
2022/10/18 08:44:16;;;;;;;;;;;;;;;16.09;69.01;96859.16;1739664;82;21622;-66
2022/10/18 08:46:49;;;;;;;6.80;5.20;;;;;;;16.21;68.00;96861.58;1739297;82;20484;-66
2022/10/18 08:49:42;;;;;;;12.20;5.22;;;;;;;16.28;65.97;96868.09;1735258;82;21579;-66
2022/10/18 08:52:33;;;;;;;7.90;5.25;;;;;;;16.35;66.54;96859.08;1738608;81;21069;-66
2022/10/18 08:55:21;;;;;;;8.78;5.83;;;;;;;16.50;67.02;96857.88;1737536;82;21570;-67
2022/10/18 08:57:50;;;;;;;8.70;5.92;;;;;;;16.64;65.58;96853.99;1739544;82;21152;-67
2022/10/18 09:00:23;;;;;;;9.93;4.87;;;;;;;16.77;65.85;96847.06;1738569;82;21566;-66
2022/10/18 09:03:13;;;;;;;6.85;5.10;;;;;;;16.92;64.96;96852.53;1737977;82;21108;-66
2022/10/18 09:05:54;;;;;;;9.40;5.72;;;;;;;17.07;65.03;96849.03;1730151;82;21096;-65
2022/10/18 09:08:35;;;;;;;8.20;5.17;;;;;;;17.25;63.57;96843.70;1738029;82;21065;-65
2022/10/18 09:11:16;;;;;;;10.65;4.70;;;;;;;17.36;61.56;96842.55;1735995;82;21579;-64
2022/10/18 09:14:12;;;;;;;8.33;4.92;;;;;;;17.46;62.28;96838.73;1740369;82;21120;-63
2022/10/18 09:16:56;;;;;;;7.53;4.97;;;;;;;17.56;62.17;96841.57;1674610;83;21164;-63
2022/10/18 09:19:31;;;;;;;7.85;4.80;;;;;;;17.66;61.03;96839.08;1732486;82;21069;-63
2022/10/18 09:22:14;;;;;;;7.20;5.37;;;;;;;17.78;61.99;96834.34;1736383;82;21089;-63
2022/10/18 09:24:52;;;;;;;5.67;4.60;;;;;;;17.89;59.52;96838.95;1739405;82;21519;-62
2022/10/18 09:27:25;;;;;;;9.63;4.47;;;;;;;17.96;61.04;96833.86;1738412;82;21215;-63
2022/10/18 09:30:09;;;;;;;9.13;4.40;;;;;;;18.02;59.93;96828.36;1743054;82;21049;-63
2022/10/18 09:32:59;;;;;;;6.90;4.50;;;;;;;18.01;56.57;96824.39;1732189;82;21531;-63
2022/10/18 09:35:43;;;;;;;6.42;4.20;;;;;;;18.04;58.62;96818.52;1737166;82;21204;-63
2022/10/18 09:38:15;;;;;;;10.10;4.60;;;;;;;18.22;59.13;96817.11;1726959;82;21129;-63
2022/10/18 09:40:53;;;;;;;6.97;4.45;;;;;;;18.34;59.54;96814.51;1744753;82;21018;-63
2022/10/18 09:43:32;;;;;;;5.90;4.12;;;;;;;18.52;60.21;96811.31;1736046;82;21121;-66
2022/10/18 09:45:59;;;;;;;7.05;4.33;;;;;;;18.65;59.11;96814.47;1738659;82;21598;-64
2022/10/18 09:48:34;;;;;;;8.40;3.80;;;;;;;18.75;59.98;96807.95;1739026;81;21526;-64
2022/10/18 09:51:10;;;;;;;4.85;4.03;;;;;;;18.87;59.18;96805.80;1735610;82;21567;-64
2022/10/18 09:54:18;;;;;;;5.47;3.77;;;;;;;18.86;57.61;96810.73;1736082;82;21338;-63
2022/10/18 09:56:51;;;;;;;5.15;4.65;;;;;;;18.91;58.84;96802.11;1736435;82;21081;-63
2022/10/18 09:59:39;;;;;;;5.10;4.17;;;;;;;19.05;58.60;96796.30;1737467;82;21070;-63
2022/10/18 10:02:10;;;;;;;7.50;4.25;;;;;;;19.09;57.57;96789.46;1738921;82;21030;-63
2022/10/18 10:04:37;;;;;;;8.48;4.50;;;;;;;19.16;56.84;96794.16;1726121;83;21058;-63
2022/10/18 10:07:08;;;;;;;7.75;4.20;;;;;;;19.19;56.75;96788.69;1707340;83;21006;-63
2022/10/18 10:09:57;;;;;;;8.95;4.20;;;;;;;19.20;56.61;96783.73;1716354;82;21044;-64
2022/10/18 10:12:37;;;;;;;7.33;4.47;;;;;;;19.33;56.44;96783.76;1727423;82;21056;-64
2022/10/18 10:15:25;;;;;;;10.98;4.87;;;;;;;19.55;56.13;96775.83;1725485;82;21033;-63
2022/10/18 10:18:06;;;;;;;7.12;4.45;;;;;;;19.86;55.45;96768.96;1727711;82;21514;-63
2022/10/18 10:20:53;;;;;;;5.22;4.47;;;;;;;20.31;54.92;96772.67;1733138;82;21519;-63
2022/10/18 10:23:47;;;;;;;6.53;4.60;;;;;;;20.78;54.36;96771.27;1737501;82;21053;-64
2022/10/18 10:26:37;;;;;;;6.95;4.75;;;;;;;21.16;52.68;96759.43;1714036;82;21541;-63
2022/10/18 10:29:24;;;;;;;7.03;4.72;;;;;;;21.71;49.49;96761.12;1735641;82;21057;-64
2022/10/18 10:32:01;;;;;;;5.42;4.10;;;;;;;22.23;49.16;96752.08;1734881;82;21034;-65
2022/10/18 10:34:29;;;;;;;8.08;4.42;;;;;;;22.72;50.19;96752.04;1732959;82;21132;-63
2022/10/18 10:36:56;;;;;;;11.48;5.25;;;;;;;23.01;46.86;96743.92;1734243;82;21141;-64
2022/10/18 10:39:24;;;;;;;6.10;3.98;;;;;;;23.27;47.26;96739.91;1737591;82;21089;-64
2022/10/18 10:41:59;;;;;;;8.30;4.10;;;;;;;23.50;45.40;96731.51;1732319;82;21045;-64
2022/10/18 10:44:30;;;;;;;5.08;4.42;;;;;;;23.75;44.33;96722.18;1738062;82;21029;-64
2022/10/18 10:46:57;;;;;;;5.50;4.80;;;;;;;23.90;43.96;96725.88;1738288;82;21098;-64
2022/10/18 10:49:42;;;;;;;5.17;4.42;;;;;;;24.22;45.41;96719.20;1732882;82;21122;-64
2022/10/18 10:52:22;;;;;;;13.72;4.53;;;;;;;24.22;42.09;96711.11;1733422;82;21038;-64
2022/10/18 10:54:50;;;;;;;7.42;4.30;;;;;;;24.25;42.38;96713.18;1736821;82;21033;-64
2022/10/18 10:57:22;;;;;;;6.28;4.17;;;;;;;24.43;42.79;96709.06;1730912;82;21192;-64
2022/10/18 10:59:52;;;;;;;8.65;4.40;;;;;;;24.79;43.29;96703.42;1736902;82;21126;-63
2022/10/18 11:02:24;;;;;;;5.87;4.28;;;;;;;24.84;41.67;96702.20;1738767;82;21076;-65
2022/10/18 11:04:54;;;;;;;5.35;3.67;;;;;;;25.10;42.06;96703.88;1731854;82;21069;-64
2022/10/18 11:07:40;;;;;;;4.92;3.87;;;;;;;25.37;41.08;96705.43;1737455;81;21073;-64
2022/10/18 11:10:17;;;;;;;7.85;4.25;;;;;;;25.54;38.83;96695.45;1735515;82;21057;-64
2022/10/18 11:12:55;;;;;;;7.85;4.28;;;;;;;25.68;39.87;96698.19;1730359;82;21010;-64
2022/10/18 11:15:34;;;;;;;7.60;4.50;;;;;;;25.61;40.04;96693.63;1729563;83;21002;-64
2022/10/18 11:18:24;;;;;;;6.00;3.90;;;;;;;25.56;39.64;96689.48;1730035;82;21030;-64
2022/10/18 11:21:16;;;;;;;7.95;4.08;;;;;;;25.80;40.27;96687.08;1731119;82;21046;-64
2022/10/18 11:23:44;;;;;;;5.00;3.77;;;;;;;25.94;39.06;96680.86;1708568;82;21113;-64
2022/10/18 11:26:19;;;;;;;5.00;3.70;;;;;;;25.93;38.94;96680.00;1695408;84;21041;-64
2022/10/18 11:29:28;;;;;;;8.55;4.42;;;;;;;26.07;38.99;96677.27;1732147;82;21135;-64
2022/10/18 11:32:19;;;;;;;5.65;3.83;;;;;;;25.99;37.69;96670.14;1720858;82;21014;-64
2022/10/18 11:35:21;;;;;;;18.73;4.78;;;;;;;26.06;39.68;96672.84;1719231;82;21048;-64
2022/10/18 11:38:05;;;;;;;8.18;4.50;;;;;;;26.02;39.43;96671.78;1710750;84;21049;-66
2022/10/18 11:41:01;;;;;;;6.28;5.30;;;;;;;26.13;38.59;96659.78;1728722;82;21573;-65
2022/10/18 11:43:43;;;;;;;6.33;4.28;;;;;;;26.37;39.01;96652.42;1724634;82;21069;-64
2022/10/18 11:46:20;;;;;;;7.03;4.00;;;;;;;26.59;38.77;96645.17;1727017;82;21636;-64
2022/10/18 11:49:10;;;;;;;6.78;4.17;;;;;;;27.00;37.72;96650.52;1725451;82;21038;-64
2022/10/18 11:51:52;;;;;;;11.10;4.08;;;;;;;27.28;37.16;96647.31;1722378;82;21122;-64
2022/10/18 11:54:42;;;;;;;7.17;4.00;;;;;;;27.54;36.32;96639.61;1736995;82;21033;-64
2022/10/18 11:57:26;;;;;;;11.83;4.67;;;;;;;27.95;35.67;96638.55;1695890;84;21092;-64
2022/10/18 12:00:38;;;;;;;6.42;4.60;;;;;;;28.14;34.71;96638.08;1725808;82;21037;-64
2022/10/18 12:03:39;;;;;;;6.65;4.22;;;;;;;27.94;34.32;96630.52;1736478;82;21050;-64